sensor_id;sensor_type;location;lat;lon;timestamp;P1;durP1;ratioP1;P2;durP2;ratioP2
65715;SDS011;63484;52.054;8.518;2023-02-20T00:00:44;10.95;;;5.45;;
65715;SDS011;63484;52.054;8.518;2023-02-20T00:05:46;12.95;;;5.85;;
65715;SDS011;63484;52.054;8.518;2023-02-20T00:10:49;14.80;;;7.90;;
65715;SDS011;63484;52.054;8.518;2023-02-20T00:15:50;13.98;;;7.50;;
65715;SDS011;63484;52.054;8.518;2023-02-20T00:20:51;13.88;;;7.15;;
65715;SDS011;63484;52.054;8.518;2023-02-20T00:25:54;13.73;;;7.65;;
65715;SDS011;63484;52.054;8.518;2023-02-20T00:30:56;16.65;;;8.82;;
65715;SDS011;63484;52.054;8.518;2023-02-20T00:35:57;14.30;;;8.77;;
65715;SDS011;63484;52.054;8.518;2023-02-20T00:41:00;16.65;;;8.40;;
65715;SDS011;63484;52.054;8.518;2023-02-20T00:46:01;13.60;;;7.72;;
65715;SDS011;63484;52.054;8.518;2023-02-20T00:51:03;16.05;;;8.05;;
65715;SDS011;63484;52.054;8.518;2023-02-20T00:56:06;12.93;;;7.55;;
65715;SDS011;63484;52.054;8.518;2023-02-20T01:01:07;14.23;;;7.70;;
65715;SDS011;63484;52.054;8.518;2023-02-20T01:06:09;16.48;;;8.18;;
65715;SDS011;63484;52.054;8.518;2023-02-20T01:11:12;15.38;;;7.65;;
65715;SDS011;63484;52.054;8.518;2023-02-20T01:16:13;16.92;;;8.43;;
65715;SDS011;63484;52.054;8.518;2023-02-20T01:21:16;18.98;;;8.85;;
65715;SDS011;63484;52.054;8.518;2023-02-20T01:26:19;15.00;;;8.35;;
65715;SDS011;63484;52.054;8.518;2023-02-20T01:31:21;14.55;;;7.47;;
65715;SDS011;63484;52.054;8.518;2023-02-20T01:36:22;15.75;;;7.28;;
65715;SDS011;63484;52.054;8.518;2023-02-20T01:41:25;13.13;;;6.95;;
65715;SDS011;63484;52.054;8.518;2023-02-20T01:51:51;14.88;;;7.25;;
65715;SDS011;63484;52.054;8.518;2023-02-20T01:56:59;14.90;;;7.50;;
65715;SDS011;63484;52.054;8.518;2023-02-20T02:02:04;12.90;;;7.47;;
65715;SDS011;63484;52.054;8.518;2023-02-20T02:07:06;15.88;;;8.00;;
65715;SDS011;63484;52.054;8.518;2023-02-20T02:12:09;18.77;;;8.38;;
65715;SDS011;63484;52.054;8.518;2023-02-20T02:17:21;21.00;;;9.73;;
65715;SDS011;63484;52.054;8.518;2023-02-20T02:22:37;20.40;;;9.73;;
65715;SDS011;63484;52.054;8.518;2023-02-20T02:28:22;20.33;;;10.13;;
65715;SDS011;63484;52.054;8.518;2023-02-20T02:34:10;24.70;;;10.57;;
65715;SDS011;63484;52.054;8.518;2023-02-20T02:39:34;20.38;;;9.35;;
65715;SDS011;63484;52.054;8.518;2023-02-20T02:44:43;21.55;;;9.93;;
65715;SDS011;63484;52.054;8.518;2023-02-20T02:49:52;24.02;;;10.27;;
65715;SDS011;63484;52.054;8.518;2023-02-20T02:54:59;19.55;;;9.52;;
65715;SDS011;63484;52.054;8.518;2023-02-20T03:00:02;19.55;;;9.68;;
65715;SDS011;63484;52.054;8.518;2023-02-20T03:05:06;16.52;;;8.10;;
65715;SDS011;63484;52.054;8.518;2023-02-20T03:10:14;19.00;;;8.65;;
65715;SDS011;63484;52.054;8.518;2023-02-20T03:15:20;19.40;;;8.85;;
65715;SDS011;63484;52.054;8.518;2023-02-20T03:20:35;22.25;;;9.88;;
65715;SDS011;63484;52.054;8.518;2023-02-20T03:25:45;17.75;;;8.05;;
65715;SDS011;63484;52.054;8.518;2023-02-20T03:30:54;20.90;;;8.20;;
65715;SDS011;63484;52.054;8.518;2023-02-20T03:36:00;19.75;;;8.25;;
65715;SDS011;63484;52.054;8.518;2023-02-20T03:41:27;23.33;;;9.40;;
65715;SDS011;63484;52.054;8.518;2023-02-20T03:46:49;16.47;;;7.73;;
65715;SDS011;63484;52.054;8.518;2023-02-20T03:51:54;21.38;;;8.75;;
65715;SDS011;63484;52.054;8.518;2023-02-20T03:57:09;21.27;;;8.85;;
65715;SDS011;63484;52.054;8.518;2023-02-20T04:02:19;20.13;;;8.25;;
65715;SDS011;63484;52.054;8.518;2023-02-20T04:07:26;29.85;;;9.13;;
65715;SDS011;63484;52.054;8.518;2023-02-20T04:12:33;27.98;;;9.38;;
65715;SDS011;63484;52.054;8.518;2023-02-20T04:17:41;21.13;;;8.77;;
65715;SDS011;63484;52.054;8.518;2023-02-20T04:22:47;22.48;;;8.57;;
65715;SDS011;63484;52.054;8.518;2023-02-20T04:27:54;20.20;;;7.72;;
65715;SDS011;63484;52.054;8.518;2023-02-20T04:32:55;20.67;;;8.30;;
65715;SDS011;63484;52.054;8.518;2023-02-20T04:37:58;17.95;;;7.60;;
65715;SDS011;63484;52.054;8.518;2023-02-20T04:43:01;19.77;;;8.18;;
65715;SDS011;63484;52.054;8.518;2023-02-20T04:48:03;18.88;;;7.90;;
65715;SDS011;63484;52.054;8.518;2023-02-20T04:53:05;20.98;;;8.57;;
65715;SDS011;63484;52.054;8.518;2023-02-20T04:58:09;23.45;;;8.25;;
65715;SDS011;63484;52.054;8.518;2023-02-20T05:03:23;17.70;;;8.13;;
65715;SDS011;63484;52.054;8.518;2023-02-20T05:08:24;19.08;;;7.90;;
65715;SDS011;63484;52.054;8.518;2023-02-20T05:13:27;20.15;;;7.72;;
65715;SDS011;63484;52.054;8.518;2023-02-20T05:18:29;19.23;;;7.43;;
65715;SDS011;63484;52.054;8.518;2023-02-20T05:23:31;19.08;;;7.60;;
65715;SDS011;63484;52.054;8.518;2023-02-20T05:28:33;18.85;;;8.07;;
65715;SDS011;63484;52.054;8.518;2023-02-20T05:33:35;20.50;;;7.47;;
65715;SDS011;63484;52.054;8.518;2023-02-20T05:38:36;16.70;;;6.40;;
65715;SDS011;63484;52.054;8.518;2023-02-20T05:43:41;15.68;;;7.57;;
65715;SDS011;63484;52.054;8.518;2023-02-20T05:48:43;21.55;;;7.75;;
65715;SDS011;63484;52.054;8.518;2023-02-20T05:53:48;18.52;;;7.10;;
65715;SDS011;63484;52.054;8.518;2023-02-20T05:58:51;20.33;;;7.55;;
65715;SDS011;63484;52.054;8.518;2023-02-20T06:03:52;18.02;;;7.55;;
65715;SDS011;63484;52.054;8.518;2023-02-20T06:08:54;18.10;;;9.43;;
65715;SDS011;63484;52.054;8.518;2023-02-20T06:13:56;24.55;;;10.43;;
65715;SDS011;63484;52.054;8.518;2023-02-20T06:18:58;24.55;;;10.60;;
65715;SDS011;63484;52.054;8.518;2023-02-20T06:24:00;29.65;;;11.85;;
65715;SDS011;63484;52.054;8.518;2023-02-20T06:29:03;28.15;;;11.13;;
65715;SDS011;63484;52.054;8.518;2023-02-20T06:34:05;27.67;;;12.68;;
65715;SDS011;63484;52.054;8.518;2023-02-20T06:39:07;27.38;;;13.52;;
65715;SDS011;63484;52.054;8.518;2023-02-20T06:44:11;34.72;;;14.68;;
65715;SDS011;63484;52.054;8.518;2023-02-20T06:49:13;33.08;;;15.32;;
65715;SDS011;63484;52.054;8.518;2023-02-20T06:54:14;37.28;;;16.52;;
65715;SDS011;63484;52.054;8.518;2023-02-20T06:59:17;36.60;;;16.85;;
65715;SDS011;63484;52.054;8.518;2023-02-20T07:04:21;39.73;;;18.07;;
65715;SDS011;63484;52.054;8.518;2023-02-20T07:09:25;39.20;;;18.35;;
65715;SDS011;63484;52.054;8.518;2023-02-20T07:14:28;41.78;;;19.13;;
65715;SDS011;63484;52.054;8.518;2023-02-20T07:19:29;38.13;;;18.05;;
65715;SDS011;63484;52.054;8.518;2023-02-20T07:24:31;41.05;;;18.73;;
65715;SDS011;63484;52.054;8.518;2023-02-20T07:29:35;39.80;;;18.87;;
65715;SDS011;63484;52.054;8.518;2023-02-20T07:34:36;40.95;;;18.25;;
65715;SDS011;63484;52.054;8.518;2023-02-20T07:39:38;42.63;;;19.27;;
65715;SDS011;63484;52.054;8.518;2023-02-20T07:44:42;33.05;;;16.88;;
65715;SDS011;63484;52.054;8.518;2023-02-20T07:49:43;33.42;;;15.98;;
65715;SDS011;63484;52.054;8.518;2023-02-20T07:54:45;36.00;;;16.10;;
65715;SDS011;63484;52.054;8.518;2023-02-20T07:59:47;32.35;;;14.93;;
65715;SDS011;63484;52.054;8.518;2023-02-20T08:04:49;31.83;;;15.52;;
65715;SDS011;63484;52.054;8.518;2023-02-20T08:09:50;30.25;;;13.38;;
65715;SDS011;63484;52.054;8.518;2023-02-20T08:14:53;25.42;;;14.32;;
65715;SDS011;63484;52.054;8.518;2023-02-20T08:19:55;29.73;;;14.38;;
65715;SDS011;63484;52.054;8.518;2023-02-20T08:24:56;30.95;;;14.95;;
65715;SDS011;63484;52.054;8.518;2023-02-20T08:29:59;27.88;;;14.45;;
65715;SDS011;63484;52.054;8.518;2023-02-20T08:35:01;30.35;;;13.77;;
65715;SDS011;63484;52.054;8.518;2023-02-20T08:40:02;31.15;;;15.93;;
65715;SDS011;63484;52.054;8.518;2023-02-20T08:45:08;29.85;;;13.52;;
65715;SDS011;63484;52.054;8.518;2023-02-20T08:50:11;35.03;;;15.32;;
65715;SDS011;63484;52.054;8.518;2023-02-20T08:55:12;31.08;;;15.80;;
65715;SDS011;63484;52.054;8.518;2023-02-20T09:00:15;35.47;;;15.55;;
65715;SDS011;63484;52.054;8.518;2023-02-20T09:05:18;30.35;;;14.40;;
65715;SDS011;63484;52.054;8.518;2023-02-20T09:10:19;26.77;;;13.88;;
65715;SDS011;63484;52.054;8.518;2023-02-20T09:15:23;33.15;;;14.60;;
65715;SDS011;63484;52.054;8.518;2023-02-20T09:20:25;37.10;;;14.27;;
65715;SDS011;63484;52.054;8.518;2023-02-20T09:25:26;35.17;;;14.65;;
65715;SDS011;63484;52.054;8.518;2023-02-20T09:30:29;32.90;;;14.95;;
65715;SDS011;63484;52.054;8.518;2023-02-20T09:35:30;34.40;;;15.70;;
65715;SDS011;63484;52.054;8.518;2023-02-20T09:40:32;35.13;;;15.02;;
65715;SDS011;63484;52.054;8.518;2023-02-20T09:45:35;37.00;;;15.77;;
65715;SDS011;63484;52.054;8.518;2023-02-20T09:50:41;43.30;;;17.45;;
65715;SDS011;63484;52.054;8.518;2023-02-20T09:55:46;48.05;;;18.48;;
65715;SDS011;63484;52.054;8.518;2023-02-20T10:00:53;44.70;;;19.20;;
65715;SDS011;63484;52.054;8.518;2023-02-20T10:06:01;41.97;;;19.23;;
65715;SDS011;63484;52.054;8.518;2023-02-20T10:11:10;40.17;;;18.40;;
65715;SDS011;63484;52.054;8.518;2023-02-20T10:16:27;39.95;;;19.98;;
65715;SDS011;63484;52.054;8.518;2023-02-20T10:21:41;46.15;;;20.58;;
65715;SDS011;63484;52.054;8.518;2023-02-20T10:26:52;36.53;;;17.75;;
65715;SDS011;63484;52.054;8.518;2023-02-20T10:32:00;41.30;;;19.33;;
65715;SDS011;63484;52.054;8.518;2023-02-20T10:37:05;42.30;;;19.58;;
65715;SDS011;63484;52.054;8.518;2023-02-20T10:42:12;42.75;;;20.02;;
65715;SDS011;63484;52.054;8.518;2023-02-20T10:47:23;43.13;;;19.00;;
65715;SDS011;63484;52.054;8.518;2023-02-20T10:52:32;54.67;;;19.30;;
65715;SDS011;63484;52.054;8.518;2023-02-20T10:57:37;46.60;;;19.55;;
65715;SDS011;63484;52.054;8.518;2023-02-20T11:02:46;46.80;;;19.77;;
65715;SDS011;63484;52.054;8.518;2023-02-20T11:07:56;46.13;;;19.08;;
65715;SDS011;63484;52.054;8.518;2023-02-20T11:12:58;46.72;;;18.27;;
65715;SDS011;63484;52.054;8.518;2023-02-20T11:18:02;45.05;;;19.35;;
65715;SDS011;63484;52.054;8.518;2023-02-20T11:23:32;39.40;;;17.40;;
65715;SDS011;63484;52.054;8.518;2023-02-20T11:28:35;37.67;;;17.55;;
65715;SDS011;63484;52.054;8.518;2023-02-20T11:33:42;43.28;;;17.48;;
65715;SDS011;63484;52.054;8.518;2023-02-20T11:38:48;38.33;;;17.25;;
65715;SDS011;63484;52.054;8.518;2023-02-20T11:49:27;35.25;;;16.52;;
65715;SDS011;63484;52.054;8.518;2023-02-20T11:54:30;33.92;;;14.98;;
65715;SDS011;63484;52.054;8.518;2023-02-20T11:59:33;38.47;;;14.75;;
65715;SDS011;63484;52.054;8.518;2023-02-20T12:04:38;33.22;;;13.63;;
65715;SDS011;63484;52.054;8.518;2023-02-20T12:09:40;34.08;;;14.25;;
65715;SDS011;63484;52.054;8.518;2023-02-20T12:14:45;39.75;;;15.55;;
65715;SDS011;63484;52.054;8.518;2023-02-20T12:19:50;33.58;;;14.15;;
65715;SDS011;63484;52.054;8.518;2023-02-20T12:24:58;29.80;;;13.27;;
65715;SDS011;63484;52.054;8.518;2023-02-20T12:30:14;29.88;;;13.23;;
65715;SDS011;63484;52.054;8.518;2023-02-20T12:35:26;28.40;;;11.98;;
65715;SDS011;63484;52.054;8.518;2023-02-20T12:40:33;32.75;;;12.73;;
65715;SDS011;63484;52.054;8.518;2023-02-20T12:45:40;29.38;;;12.77;;
65715;SDS011;63484;52.054;8.518;2023-02-20T12:50:56;29.33;;;11.82;;
65715;SDS011;63484;52.054;8.518;2023-02-20T12:56:12;30.02;;;11.70;;
65715;SDS011;63484;52.054;8.518;2023-02-20T13:01:24;26.35;;;10.80;;
65715;SDS011;63484;52.054;8.518;2023-02-20T13:06:28;29.15;;;10.65;;
65715;SDS011;63484;52.054;8.518;2023-02-20T13:11:35;26.25;;;10.82;;
65715;SDS011;63484;52.054;8.518;2023-02-20T13:16:43;27.33;;;10.68;;
65715;SDS011;63484;52.054;8.518;2023-02-20T13:21:52;25.17;;;10.45;;
65715;SDS011;63484;52.054;8.518;2023-02-20T13:31:57;25.85;;;11.05;;
65715;SDS011;63484;52.054;8.518;2023-02-20T13:37:02;23.33;;;9.90;;
65715;SDS011;63484;52.054;8.518;2023-02-20T13:47:32;25.98;;;9.75;;
65715;SDS011;63484;52.054;8.518;2023-02-20T13:52:38;20.98;;;9.35;;
65715;SDS011;63484;52.054;8.518;2023-02-20T13:57:42;23.85;;;10.20;;
65715;SDS011;63484;52.054;8.518;2023-02-20T14:02:46;24.25;;;9.88;;
65715;SDS011;63484;52.054;8.518;2023-02-20T14:07:48;18.83;;;9.23;;
65715;SDS011;63484;52.054;8.518;2023-02-20T14:12:54;21.70;;;9.73;;
65715;SDS011;63484;52.054;8.518;2023-02-20T14:17:59;22.75;;;9.30;;
65715;SDS011;63484;52.054;8.518;2023-02-20T14:23:07;24.05;;;9.98;;
65715;SDS011;63484;52.054;8.518;2023-02-20T14:28:11;28.05;;;11.00;;
65715;SDS011;63484;52.054;8.518;2023-02-20T14:33:18;26.23;;;10.35;;
65715;SDS011;63484;52.054;8.518;2023-02-20T14:38:29;25.33;;;9.57;;
65715;SDS011;63484;52.054;8.518;2023-02-20T14:43:38;26.02;;;10.43;;
65715;SDS011;63484;52.054;8.518;2023-02-20T14:48:40;23.67;;;10.38;;
65715;SDS011;63484;52.054;8.518;2023-02-20T14:53:43;23.58;;;10.13;;
65715;SDS011;63484;52.054;8.518;2023-02-20T15:03:57;24.42;;;10.27;;
65715;SDS011;63484;52.054;8.518;2023-02-20T15:09:05;25.25;;;9.43;;
65715;SDS011;63484;52.054;8.518;2023-02-20T15:14:10;25.48;;;10.50;;
65715;SDS011;63484;52.054;8.518;2023-02-20T15:19:19;27.75;;;10.40;;
65715;SDS011;63484;52.054;8.518;2023-02-20T15:29:43;25.08;;;10.18;;
65715;SDS011;63484;52.054;8.518;2023-02-20T15:34:48;21.10;;;10.30;;
65715;SDS011;63484;52.054;8.518;2023-02-20T15:39:53;24.75;;;10.48;;
65715;SDS011;63484;52.054;8.518;2023-02-20T15:44:55;23.73;;;9.90;;
65715;SDS011;63484;52.054;8.518;2023-02-20T15:49:57;23.98;;;10.02;;
65715;SDS011;63484;52.054;8.518;2023-02-20T15:54:59;25.83;;;10.63;;
65715;SDS011;63484;52.054;8.518;2023-02-20T16:00:01;25.37;;;10.57;;
65715;SDS011;63484;52.054;8.518;2023-02-20T16:05:03;27.40;;;10.20;;
65715;SDS011;63484;52.054;8.518;2023-02-20T16:10:07;26.48;;;10.57;;
65715;SDS011;63484;52.054;8.518;2023-02-20T16:15:10;26.13;;;9.00;;
65715;SDS011;63484;52.054;8.518;2023-02-20T16:20:17;26.20;;;10.80;;
65715;SDS011;63484;52.054;8.518;2023-02-20T16:25:21;23.00;;;10.20;;
65715;SDS011;63484;52.054;8.518;2023-02-20T16:30:24;21.80;;;9.23;;
65715;SDS011;63484;52.054;8.518;2023-02-20T16:35:29;18.52;;;8.40;;
65715;SDS011;63484;52.054;8.518;2023-02-20T16:40:32;22.80;;;9.07;;
65715;SDS011;63484;52.054;8.518;2023-02-20T16:45:33;21.88;;;8.93;;
65715;SDS011;63484;52.054;8.518;2023-02-20T16:50:36;19.23;;;8.73;;
65715;SDS011;63484;52.054;8.518;2023-02-20T16:55:39;21.73;;;9.02;;
65715;SDS011;63484;52.054;8.518;2023-02-20T17:00:41;20.23;;;9.05;;
65715;SDS011;63484;52.054;8.518;2023-02-20T17:05:44;19.67;;;9.07;;
65715;SDS011;63484;52.054;8.518;2023-02-20T17:10:48;22.48;;;9.80;;
65715;SDS011;63484;52.054;8.518;2023-02-20T17:15:50;22.63;;;9.50;;
65715;SDS011;63484;52.054;8.518;2023-02-20T17:20:51;26.88;;;10.95;;
65715;SDS011;63484;52.054;8.518;2023-02-20T17:25:54;27.83;;;11.48;;
65715;SDS011;63484;52.054;8.518;2023-02-20T17:30:55;27.20;;;11.18;;
65715;SDS011;63484;52.054;8.518;2023-02-20T17:35:57;22.55;;;10.70;;
65715;SDS011;63484;52.054;8.518;2023-02-20T17:40:59;27.00;;;10.18;;
65715;SDS011;63484;52.054;8.518;2023-02-20T17:46:01;22.20;;;9.95;;
65715;SDS011;63484;52.054;8.518;2023-02-20T17:51:02;23.40;;;10.50;;
65715;SDS011;63484;52.054;8.518;2023-02-20T17:56:05;26.90;;;11.15;;
65715;SDS011;63484;52.054;8.518;2023-02-20T18:01:07;25.40;;;11.60;;
65715;SDS011;63484;52.054;8.518;2023-02-20T18:06:09;29.25;;;11.85;;
65715;SDS011;63484;52.054;8.518;2023-02-20T18:11:12;30.35;;;12.15;;
65715;SDS011;63484;52.054;8.518;2023-02-20T18:16:13;31.17;;;13.45;;
65715;SDS011;63484;52.054;8.518;2023-02-20T18:21:15;38.58;;;13.63;;
65715;SDS011;63484;52.054;8.518;2023-02-20T18:26:19;34.63;;;14.47;;
65715;SDS011;63484;52.054;8.518;2023-02-20T18:31:21;34.63;;;14.50;;
65715;SDS011;63484;52.054;8.518;2023-02-20T18:36:23;37.58;;;15.43;;
65715;SDS011;63484;52.054;8.518;2023-02-20T18:41:26;34.67;;;15.85;;
65715;SDS011;63484;52.054;8.518;2023-02-20T18:46:28;34.15;;;14.55;;
65715;SDS011;63484;52.054;8.518;2023-02-20T18:51:31;35.85;;;15.80;;
65715;SDS011;63484;52.054;8.518;2023-02-20T18:56:36;40.55;;;16.38;;
65715;SDS011;63484;52.054;8.518;2023-02-20T19:01:39;50.80;;;18.63;;
65715;SDS011;63484;52.054;8.518;2023-02-20T19:06:41;47.95;;;18.90;;
65715;SDS011;63484;52.054;8.518;2023-02-20T19:11:47;44.60;;;18.45;;
65715;SDS011;63484;52.054;8.518;2023-02-20T19:16:50;47.53;;;19.50;;
65715;SDS011;63484;52.054;8.518;2023-02-20T19:21:53;50.08;;;20.77;;
65715;SDS011;63484;52.054;8.518;2023-02-20T19:26:56;51.75;;;20.88;;
65715;SDS011;63484;52.054;8.518;2023-02-20T19:31:57;51.58;;;21.48;;
65715;SDS011;63484;52.054;8.518;2023-02-20T19:37:01;56.20;;;22.33;;
65715;SDS011;63484;52.054;8.518;2023-02-20T19:42:04;55.58;;;21.33;;
65715;SDS011;63484;52.054;8.518;2023-02-20T19:47:06;56.45;;;22.42;;
65715;SDS011;63484;52.054;8.518;2023-02-20T19:52:07;59.05;;;22.60;;
65715;SDS011;63484;52.054;8.518;2023-02-20T19:57:10;57.95;;;22.38;;
65715;SDS011;63484;52.054;8.518;2023-02-20T20:02:12;57.78;;;22.45;;
65715;SDS011;63484;52.054;8.518;2023-02-20T20:07:13;59.40;;;23.92;;
65715;SDS011;63484;52.054;8.518;2023-02-20T20:12:16;61.05;;;24.00;;
65715;SDS011;63484;52.054;8.518;2023-02-20T20:17:38;66.93;;;23.47;;
65715;SDS011;63484;52.054;8.518;2023-02-20T20:22:39;60.97;;;23.58;;
65715;SDS011;63484;52.054;8.518;2023-02-20T20:27:42;60.85;;;23.80;;
65715;SDS011;63484;52.054;8.518;2023-02-20T20:32:45;55.85;;;22.67;;
65715;SDS011;63484;52.054;8.518;2023-02-20T20:37:46;59.53;;;22.83;;
65715;SDS011;63484;52.054;8.518;2023-02-20T20:42:49;61.53;;;23.58;;
65715;SDS011;63484;52.054;8.518;2023-02-20T20:47:51;56.58;;;23.02;;
65715;SDS011;63484;52.054;8.518;2023-02-20T20:52:53;75.68;;;25.05;;
65715;SDS011;63484;52.054;8.518;2023-02-20T20:58:01;62.70;;;23.17;;
65715;SDS011;63484;52.054;8.518;2023-02-20T21:03:03;58.13;;;22.40;;
65715;SDS011;63484;52.054;8.518;2023-02-20T21:08:07;64.13;;;22.35;;
65715;SDS011;63484;52.054;8.518;2023-02-20T21:13:10;68.53;;;24.45;;
65715;SDS011;63484;52.054;8.518;2023-02-20T21:18:13;59.92;;;21.80;;
65715;SDS011;63484;52.054;8.518;2023-02-20T21:23:14;60.85;;;23.38;;
65715;SDS011;63484;52.054;8.518;2023-02-20T21:28:17;62.83;;;22.77;;
65715;SDS011;63484;52.054;8.518;2023-02-20T21:33:19;57.35;;;22.23;;
65715;SDS011;63484;52.054;8.518;2023-02-20T21:38:20;66.88;;;22.98;;
65715;SDS011;63484;52.054;8.518;2023-02-20T21:43:23;56.88;;;22.67;;
65715;SDS011;63484;52.054;8.518;2023-02-20T21:48:42;60.70;;;22.05;;
65715;SDS011;63484;52.054;8.518;2023-02-20T21:53:44;59.05;;;22.85;;
65715;SDS011;63484;52.054;8.518;2023-02-20T21:58:47;57.35;;;22.75;;
65715;SDS011;63484;52.054;8.518;2023-02-20T22:04:02;67.28;;;24.65;;
65715;SDS011;63484;52.054;8.518;2023-02-20T22:09:03;61.03;;;22.63;;
65715;SDS011;63484;52.054;8.518;2023-02-20T22:14:25;59.47;;;24.52;;
65715;SDS011;63484;52.054;8.518;2023-02-20T22:19:44;66.05;;;24.25;;
65715;SDS011;63484;52.054;8.518;2023-02-20T22:25:03;64.57;;;24.90;;
65715;SDS011;63484;52.054;8.518;2023-02-20T22:30:24;71.90;;;24.50;;
65715;SDS011;63484;52.054;8.518;2023-02-20T22:35:43;63.42;;;25.27;;
65715;SDS011;63484;52.054;8.518;2023-02-20T22:41:02;70.00;;;24.98;;
65715;SDS011;63484;52.054;8.518;2023-02-20T22:46:23;60.13;;;23.52;;
65715;SDS011;63484;52.054;8.518;2023-02-20T22:51:45;61.00;;;22.55;;
65715;SDS011;63484;52.054;8.518;2023-02-20T22:57:04;57.72;;;23.52;;
65715;SDS011;63484;52.054;8.518;2023-02-20T23:02:25;60.50;;;23.23;;
65715;SDS011;63484;52.054;8.518;2023-02-20T23:07:44;53.28;;;23.77;;
65715;SDS011;63484;52.054;8.518;2023-02-20T23:13:03;57.22;;;23.38;;
65715;SDS011;63484;52.054;8.518;2023-02-20T23:18:24;53.63;;;22.23;;
65715;SDS011;63484;52.054;8.518;2023-02-20T23:23:43;52.05;;;20.90;;
65715;SDS011;63484;52.054;8.518;2023-02-20T23:29:02;65.85;;;24.35;;
65715;SDS011;63484;52.054;8.518;2023-02-20T23:34:23;52.17;;;22.33;;
65715;SDS011;63484;52.054;8.518;2023-02-20T23:39:43;53.53;;;22.58;;
65715;SDS011;63484;52.054;8.518;2023-02-20T23:45:03;53.60;;;21.23;;
65715;SDS011;63484;52.054;8.518;2023-02-20T23:50:24;53.65;;;19.98;;
65715;SDS011;63484;52.054;8.518;2023-02-20T23:55:43;50.67;;;19.08;;
